Bookmark and Share
Track history (hours):
 

APL Coral

More information available from US FCC via Universal Licensing System and Coast Guard Vessel Documentation Center.

Last reported at 2014-Apr-12 06:00 UTC. Time now 2014-Apr-16 04:23 UTC.
Position N 07°30' E 076°12'.

Length 275 m.

Type: Cargo ship. MMSI: 367478280.

Wind from 340 at 9 knots

Waves 1.0 meters (3 feet), 1 second period

Barometer 1015.0 mb
Air temperature 29.0 ° C
Visibility: greater than 10.8 NM
Dewpoint 26.3 ° C
Water temperature 31.0 ° C

NotesDate/timePositionNaut miles runAvg speedWind from/ knotsBaromVisibWave heightAir tempDewpointWater temp
2014-Apr-12 06:00N 07°30' E 076°12'11719.5 340 / 91015.010.8 1.029.026.331.0
2014-Apr-12 00:00N 08°18' E 074°24'59219.7 010 / 21013.010.8 28.525.131.0
2014-Apr-10 18:00N 15°12' E 067°12'74020.5 050 / 21017.0 5.4 26.020.229.0
2014-Apr-09 06:00N 24°30' E 058°36'17518.5 290 / 21017.0 27.019.726.0
2014-Apr-08 20:33N 26°28' E 056°13'2019.9
2014-Apr-08 19:33N 26°15' E 055°56'2419.7
2014-Apr-08 18:21N 25°59' E 055°37'1619.7
2014-Apr-08 17:31N 25°47' E 055°23'1819.1
2014-Apr-08 16:33N 25°37' E 055°06'2019.9
2014-Apr-08 15:34N 25°23' E 054°51'1515.4
2014-Apr-08 14:33N 25°08' E 054°55'10 9.6
2014-Apr-08 13:33N 25°02' E 055°03'0 0.5
2014-Apr-08 12:33N 25°02' E 055°04'0 0.0
2014-Apr-08 10:31N 25°02' E 055°04'0 0.0
2014-Apr-08 05:31N 25°02' E 055°04'0 0.0
2014-Apr-08 04:28N 25°02' E 055°04'0 0.0
2014-Apr-08 03:28N 25°02' E 055°04'0 0.0
2014-Apr-08 02:28N 25°02' E 055°04'0 0.0
2014-Apr-08 01:16N 25°02' E 055°04'0 0.0
2014-Apr-08 00:28N 25°02' E 055°04'0 0.0
2014-Apr-07 23:28N 25°02' E 055°04'0 0.0
2014-Apr-07 22:31N 25°02' E 055°04'0 0.0
2014-Apr-07 21:31N 25°02' E 055°04'0 0.0
2014-Apr-07 20:28N 25°02' E 055°04'0 0.0
2014-Apr-07 19:31N 25°02' E 055°04'0 0.0
2014-Apr-07 17:28N 25°02' E 055°04'0 0.0
2014-Apr-07 16:22N 25°02' E 055°04'0 0.0
2014-Apr-07 15:28N 25°02' E 055°04'0 0.0
2014-Apr-07 14:31N 25°02' E 055°04'0 0.0
2014-Apr-07 13:28N 25°02' E 055°04'0 0.0
2014-Apr-07 12:31N 25°02' E 055°04'0 0.1
2014-Apr-07 11:31N 25°02' E 055°04'9 9.7
2014-Apr-07 10:33N 25°07' E 054°56'6 6.0
2014-Apr-07 09:33N 25°12' E 054°52'2 2.4
2014-Apr-07 08:34N 25°14' E 054°50'0 0.4
2014-Apr-07 07:33N 25°14' E 054°51'0 0.3
2014-Apr-07 06:33N 25°14' E 054°51'0 0.3
2014-Apr-07 05:33N 25°14' E 054°51'0 0.2
2014-Apr-07 04:33N 25°14' E 054°51'3 3.2
2014-Apr-07 03:33N 25°17' E 054°50'7 7.3
2014-Apr-07 02:33N 25°24' E 054°52'1616.1
2014-Apr-07 01:33N 25°35' E 055°05'1816.1
2014-Apr-07 00:28N 25°46' E 055°20'1617.3
2014-Apr-06 23:33N 25°56' E 055°34'2318.1
2014-Apr-06 22:19N 26°12' E 055°52'1917.2
2014-Apr-06 21:11N 26°25' E 056°07'1317.6
2014-Apr-06 20:28N 26°35' E 056°17'1516.9
2014-Apr-06 19:33N 26°38' E 056°34'  
2014-Apr-04 06:00N 13°06' E 049°18'22718.9
2014-Apr-03 18:00N 12°00' E 045°36'53217.7 1010.0 27.024.328.0
2014-Apr-02 12:00N 18°48' E 039°42'   190 / 91007.5 5.4 33.026.428.0

Dump ship's entire track history

sailing weather and tide predictions

APL Coral — WDF6832 — position and weather